createdAt,value
2023-04-28T00:00:02.510Z,2.73
2023-04-28T00:02:33.128Z,2.30
2023-04-28T00:05:02.411Z,2.53
2023-04-28T00:07:30.298Z,2.60
2023-04-28T00:09:58.108Z,2.93
2023-04-28T00:12:25.996Z,2.00
2023-04-28T00:14:53.814Z,4.10
2023-04-28T00:17:21.702Z,2.90
2023-04-28T00:19:49.554Z,2.70
2023-04-28T00:22:18.752Z,3.60
2023-04-28T00:24:46.985Z,4.20
2023-04-28T00:27:14.801Z,2.90
2023-04-28T00:29:42.654Z,2.67
2023-04-28T00:32:10.692Z,2.50
2023-04-28T00:34:38.540Z,4.60
2023-04-28T00:37:06.358Z,3.30
2023-04-28T00:39:35.571Z,2.60
2023-04-28T00:42:04.280Z,3.13
2023-04-28T00:44:32.142Z,2.87
2023-04-28T00:47:00.554Z,3.27
2023-04-28T00:49:28.554Z,2.70
2023-04-28T00:51:56.484Z,2.47
2023-04-28T00:54:24.593Z,4.67
2023-04-28T00:56:53.919Z,2.77
2023-04-28T00:59:21.766Z,4.43
2023-04-28T01:01:50.062Z,2.57
2023-04-28T01:04:18.788Z,2.40
2023-04-28T01:06:47.348Z,4.00
2023-04-28T01:09:15.174Z,2.57
2023-04-28T01:11:43.034Z,2.80
2023-04-28T01:14:34.663Z,2.43
2023-04-28T01:17:02.796Z,3.80
2023-04-28T01:19:30.781Z,2.20
2023-04-28T01:21:58.682Z,2.83
2023-04-28T01:24:28.806Z,4.70
2023-04-28T01:26:59.738Z,2.50
2023-04-28T01:29:29.112Z,2.20
2023-04-28T01:31:57.059Z,2.57
2023-04-28T01:34:25.168Z,2.67
2023-04-28T01:36:53.063Z,3.33
2023-04-28T01:39:21.056Z,4.03
2023-04-28T01:41:50.202Z,2.80
2023-04-28T01:44:18.380Z,2.93
2023-04-28T01:46:49.617Z,2.77
2023-04-28T01:49:17.400Z,5.23
2023-04-28T01:51:45.178Z,3.43
2023-04-28T01:54:13.518Z,4.20
2023-04-28T01:56:41.888Z,4.90
2023-04-28T01:59:11.877Z,2.90
2023-04-28T02:01:39.769Z,3.87
2023-04-28T02:04:07.796Z,4.77
2023-04-28T02:06:37.739Z,3.40
2023-04-28T02:09:05.632Z,3.60
2023-04-28T02:11:34.812Z,4.30
2023-04-28T02:14:02.793Z,3.73
2023-04-28T02:16:33.193Z,5.57
2023-04-28T02:19:01.120Z,4.47
2023-04-28T02:21:29.228Z,6.23
2023-04-28T02:23:57.039Z,5.80
2023-04-28T02:26:25.884Z,5.90
2023-04-28T02:28:53.802Z,5.87
2023-04-28T02:31:21.771Z,5.10
2023-04-28T02:33:51.939Z,5.73
2023-04-28T02:36:20.093Z,5.97
2023-04-28T02:38:47.932Z,4.60
2023-04-28T02:41:16.146Z,6.50
2023-04-28T02:43:44.704Z,4.83
2023-04-28T02:46:12.643Z,6.03
2023-04-28T02:48:41.435Z,5.77
2023-04-28T02:51:10.723Z,5.57
2023-04-28T02:53:39.192Z,7.83
2023-04-28T02:56:07.329Z,5.03
2023-04-28T02:58:35.267Z,4.60
2023-04-28T03:01:03.434Z,3.93
2023-04-28T03:03:31.382Z,4.37
2023-04-28T03:05:59.353Z,4.30
2023-04-28T03:08:28.687Z,4.93
2023-04-28T03:10:57.021Z,7.07
2023-04-28T03:13:25.489Z,3.70
2023-04-28T03:15:53.498Z,4.97
2023-04-28T03:18:22.527Z,3.97
2023-04-28T03:20:50.699Z,5.90
2023-04-28T03:23:18.534Z,4.10
2023-04-28T03:25:47.776Z,7.07
2023-04-28T03:28:16.233Z,3.50
2023-04-28T03:30:44.127Z,5.53
2023-04-28T03:33:12.049Z,4.10
2023-04-28T03:35:40.303Z,5.63
2023-04-28T03:38:08.600Z,3.40
2023-04-28T03:40:37.779Z,3.53
2023-04-28T03:43:12.872Z,3.83
2023-04-28T03:45:53.562Z,4.73
2023-04-28T03:48:21.573Z,5.70
2023-04-28T03:50:49.533Z,4.00
2023-04-28T03:53:17.389Z,5.00
2023-04-28T03:55:45.645Z,4.77
2023-04-28T03:58:15.006Z,8.50
2023-04-28T04:00:42.932Z,5.47
2023-04-28T04:03:11.602Z,4.20
2023-04-28T04:05:40.976Z,3.80
2023-04-28T04:08:09.026Z,4.03
2023-04-28T04:10:37.145Z,4.43
2023-04-28T04:13:05.092Z,4.67
2023-04-28T04:15:34.487Z,4.40
2023-04-28T04:18:02.501Z,6.00
2023-04-28T04:20:40.444Z,6.00
2023-04-28T04:23:08.890Z,5.60
2023-04-28T04:25:36.965Z,5.43
2023-04-28T04:28:05.563Z,4.43
2023-04-28T04:30:34.991Z,7.07
2023-04-28T04:33:02.941Z,4.20
2023-04-28T04:35:30.903Z,6.27
2023-04-28T04:37:58.922Z,5.00
2023-04-28T04:40:26.870Z,7.57
2023-04-28T04:42:56.021Z,5.40
2023-04-28T04:45:28.425Z,5.20
2023-04-28T04:47:58.497Z,5.20
2023-04-28T04:50:26.409Z,5.67
2023-04-28T04:52:56.664Z,6.20
2023-04-28T04:55:25.336Z,5.73
2023-04-28T04:57:53.711Z,10.37
2023-04-28T05:00:30.284Z,6.27
2023-04-28T05:02:59.670Z,7.30
2023-04-28T05:05:28.757Z,8.37
2023-04-28T05:08:21.857Z,9.53
2023-04-28T05:10:49.724Z,7.80
2023-04-28T05:13:18.063Z,12.77
2023-04-28T05:15:46.100Z,8.10
2023-04-28T05:18:37.976Z,8.30
2023-04-28T05:21:06.377Z,7.33
2023-04-28T05:23:35.651Z,7.33
2023-04-28T05:26:04.256Z,8.80
2023-04-28T05:28:32.887Z,8.60
2023-04-28T05:31:02.606Z,11.13
2023-04-28T05:33:32.256Z,10.30
2023-04-28T05:36:01.697Z,9.97
2023-04-28T05:38:31.911Z,7.70
2023-04-28T05:41:00.741Z,10.50
2023-04-28T05:43:29.574Z,6.87
2023-04-28T05:45:57.703Z,8.63
2023-04-28T05:48:25.728Z,8.00
2023-04-28T05:50:54.073Z,9.00
2023-04-28T05:53:24.231Z,10.40
2023-04-28T05:55:52.842Z,8.80
2023-04-28T05:58:22.001Z,10.90
2023-04-28T06:00:49.854Z,9.97
2023-04-28T06:03:19.255Z,12.10
2023-04-28T06:05:48.004Z,11.17
2023-04-28T06:08:16.898Z,11.90
2023-04-28T06:10:46.402Z,14.97
2023-04-28T06:13:14.732Z,21.77
2023-04-28T06:15:43.199Z,13.87
2023-04-28T06:18:11.254Z,13.87
2023-04-28T06:20:39.161Z,15.43
2023-04-28T06:23:07.397Z,15.33
2023-04-28T06:25:36.215Z,19.10
2023-04-28T06:28:06.380Z,19.47
2023-04-28T06:30:34.657Z,17.47
2023-04-28T06:33:05.291Z,20.87
2023-04-28T06:35:35.732Z,13.80
2023-04-28T06:38:03.743Z,21.53
2023-04-28T06:40:31.794Z,20.67
2023-04-28T06:43:01.634Z,19.33
2023-04-28T06:45:38.572Z,17.20
2023-04-28T06:48:07.950Z,19.50
2023-04-28T06:50:40.726Z,19.60
2023-04-28T06:53:09.553Z,20.00
2023-04-28T06:55:37.381Z,17.87
2023-04-28T06:58:05.261Z,19.73
2023-04-28T07:00:35.189Z,17.57
2023-04-28T07:03:07.185Z,23.47
2023-04-28T07:05:36.298Z,18.57
2023-04-28T07:08:04.462Z,19.00
2023-04-28T07:10:32.251Z,17.03
2023-04-28T07:13:00.272Z,18.07
2023-04-28T07:15:28.424Z,19.50
2023-04-28T07:17:56.380Z,17.37
2023-04-28T07:20:25.613Z,15.60
2023-04-28T07:22:53.455Z,17.80
2023-04-28T07:25:21.673Z,17.67
2023-04-28T07:27:50.272Z,16.03
2023-04-28T07:30:27.308Z,19.03
2023-04-28T07:32:56.834Z,15.00
2023-04-28T07:35:26.865Z,18.03
2023-04-28T07:37:57.937Z,16.97
2023-04-28T07:40:26.239Z,16.47
2023-04-28T07:42:54.343Z,15.70
2023-04-28T07:45:22.537Z,14.23
2023-04-28T07:47:50.428Z,12.77
2023-04-28T07:50:21.437Z,17.87
2023-04-28T07:52:50.704Z,18.20
2023-04-28T07:55:18.607Z,21.00
2023-04-28T07:57:47.834Z,15.70
2023-04-28T08:00:16.675Z,14.63
2023-04-28T08:02:44.723Z,13.27
2023-04-28T08:05:12.982Z,15.73
2023-04-28T08:07:41.422Z,16.70
2023-04-28T08:10:11.762Z,18.93
2023-04-28T08:12:40.848Z,12.70
2023-04-28T08:15:11.878Z,15.63
2023-04-28T08:17:39.779Z,17.10
2023-04-28T08:20:09.171Z,12.77
2023-04-28T08:22:36.954Z,18.97
2023-04-28T08:25:05.471Z,12.30
2023-04-28T08:27:37.979Z,12.93
2023-04-28T08:30:06.938Z,14.10
2023-04-28T08:32:34.767Z,14.37
2023-04-28T08:35:03.468Z,15.40
2023-04-28T08:37:31.473Z,12.77
2023-04-28T08:40:02.263Z,13.70
2023-04-28T08:42:30.500Z,18.13
2023-04-28T08:45:00.563Z,14.67
2023-04-28T08:47:35.016Z,17.03
2023-04-28T08:50:07.986Z,14.57
2023-04-28T08:52:36.747Z,15.93
2023-04-28T08:55:08.000Z,16.10
2023-04-28T08:57:41.346Z,16.07
2023-04-28T09:00:12.201Z,15.97
2023-04-28T09:02:42.442Z,17.30
2023-04-28T09:05:11.368Z,17.47
2023-04-28T09:07:39.959Z,15.70
2023-04-28T09:10:19.128Z,18.90
2023-04-28T09:12:47.296Z,18.03
2023-04-28T09:15:29.520Z,18.57
2023-04-28T09:17:58.695Z,17.20
2023-04-28T09:20:28.085Z,19.87
2023-04-28T09:22:57.333Z,19.73
2023-04-28T09:25:26.963Z,17.17
2023-04-28T09:27:54.780Z,19.73
2023-04-28T09:30:40.028Z,20.13
2023-04-28T09:33:11.248Z,19.50
2023-04-28T09:35:42.940Z,19.87
2023-04-28T09:38:10.853Z,23.63
2023-04-28T09:40:54.697Z,22.60
2023-04-28T09:43:27.695Z,22.23
2023-04-28T09:45:58.221Z,22.80
2023-04-28T09:48:30.869Z,22.07
2023-04-28T09:50:59.412Z,22.43
2023-04-28T09:53:27.603Z,23.07
2023-04-28T09:55:56.886Z,25.73
2023-04-28T09:58:27.419Z,24.93
2023-04-28T10:00:58.208Z,26.97
2023-04-28T10:03:29.401Z,25.40
2023-04-28T10:05:58.442Z,27.57
2023-04-28T10:08:27.978Z,25.13
2023-04-28T10:10:57.822Z,27.23
2023-04-28T10:13:26.541Z,23.67
2023-04-28T10:15:55.605Z,22.90
2023-04-28T10:18:25.941Z,24.53
2023-04-28T10:20:58.120Z,26.07
2023-04-28T10:23:43.660Z,23.00
2023-04-28T10:26:14.101Z,23.83
2023-04-28T10:28:47.481Z,24.40
2023-04-28T10:31:16.833Z,22.53
2023-04-28T10:33:46.302Z,22.10
2023-04-28T10:36:50.752Z,21.10
2023-04-28T10:39:18.791Z,23.80
2023-04-28T10:41:47.196Z,25.20
2023-04-28T10:44:42.670Z,22.73
2023-04-28T10:47:11.323Z,20.43
2023-04-28T10:50:12.368Z,20.00
2023-04-28T10:52:50.397Z,20.00
2023-04-28T10:55:30.698Z,18.90
2023-04-28T10:58:33.798Z,18.90
2023-04-28T11:01:27.193Z,20.30
2023-04-28T11:04:00.542Z,18.30
2023-04-28T11:06:32.468Z,17.80
2023-04-28T11:09:03.299Z,18.47
2023-04-28T11:11:32.650Z,18.80
2023-04-28T11:14:34.979Z,17.13
2023-04-28T11:17:03.844Z,17.53
2023-04-28T11:19:33.136Z,17.20
2023-04-28T11:22:03.477Z,17.67
2023-04-28T11:24:32.225Z,16.33
2023-04-28T11:27:00.643Z,18.07
2023-04-28T11:29:36.264Z,16.93
2023-04-28T11:32:04.787Z,17.57
2023-04-28T11:34:32.787Z,17.40
2023-04-28T11:37:02.146Z,21.90
2023-04-28T11:39:31.685Z,19.93
2023-04-28T11:42:00.047Z,21.03
2023-04-28T11:44:29.602Z,18.53
2023-04-28T11:47:00.762Z,22.10
2023-04-28T11:49:30.367Z,20.20
2023-04-28T11:52:00.449Z,21.10
2023-04-28T11:54:30.051Z,20.13
2023-04-28T11:56:59.044Z,19.13
2023-04-28T11:59:28.064Z,18.03
2023-04-28T12:01:59.227Z,19.00
2023-04-28T12:04:28.761Z,17.43
2023-04-28T12:07:01.219Z,18.47
2023-04-28T12:09:30.774Z,19.07
2023-04-28T12:12:00.188Z,18.30
2023-04-28T12:14:27.982Z,17.30
2023-04-28T12:16:56.984Z,16.87
2023-04-28T12:19:24.841Z,18.40
2023-04-28T12:22:03.182Z,16.87
2023-04-28T12:24:33.507Z,16.77
2023-04-28T12:27:18.526Z,18.60
2023-04-28T12:29:47.360Z,14.27
2023-04-28T12:32:17.379Z,14.70
2023-04-28T12:34:47.253Z,14.63
2023-04-28T12:37:15.430Z,13.83
2023-04-28T12:39:44.794Z,12.60
2023-04-28T12:42:15.547Z,11.97
2023-04-28T12:44:43.401Z,10.63
2023-04-28T12:47:12.228Z,12.67
2023-04-28T12:49:40.474Z,8.43
2023-04-28T12:52:08.425Z,8.07
2023-04-28T12:54:36.811Z,11.03
2023-04-28T12:57:06.467Z,7.60
2023-04-28T12:59:34.499Z,6.10
2023-04-28T13:02:02.711Z,6.67
2023-04-28T13:04:31.641Z,5.87
2023-04-28T13:06:59.833Z,7.13
2023-04-28T13:09:28.329Z,6.67
2023-04-28T13:11:56.358Z,6.10
2023-04-28T13:14:27.951Z,6.80
2023-04-28T13:16:55.846Z,5.90
2023-04-28T13:19:23.771Z,5.70
2023-04-28T13:21:52.233Z,5.70
2023-04-28T13:24:20.088Z,5.07
2023-04-28T13:26:47.943Z,4.50
2023-04-28T13:29:15.777Z,4.37
2023-04-28T13:31:45.071Z,3.80
2023-04-28T13:34:16.155Z,3.67
2023-04-28T13:36:44.591Z,3.10
2023-04-28T13:39:14.587Z,2.97
2023-04-28T13:41:42.828Z,3.00
2023-04-28T13:44:10.699Z,3.70
2023-04-28T13:46:38.591Z,3.27
2023-04-28T13:49:07.777Z,5.40
2023-04-28T13:51:35.794Z,5.00
2023-04-28T13:54:04.716Z,4.40
2023-04-28T13:56:32.900Z,5.17
2023-04-28T13:59:00.992Z,3.67
2023-04-28T14:01:29.101Z,4.73
2023-04-28T14:03:57.109Z,4.63
2023-04-28T14:06:26.522Z,7.17
2023-04-28T14:08:54.424Z,4.10
2023-04-28T14:11:22.621Z,3.47
2023-04-28T14:13:50.549Z,3.20
2023-04-28T14:16:18.645Z,2.80
2023-04-28T14:18:46.514Z,2.67
2023-04-28T14:21:14.348Z,3.50
2023-04-28T14:23:43.514Z,2.20
2023-04-28T14:26:11.346Z,2.37
2023-04-28T14:28:39.544Z,2.10
2023-04-28T14:31:08.826Z,3.77
2023-04-28T14:33:37.211Z,1.57
2023-04-28T14:36:05.447Z,1.60
2023-04-28T14:38:33.335Z,1.60
2023-04-28T14:41:02.668Z,3.90
2023-04-28T14:43:30.543Z,2.20
2023-04-28T14:45:58.585Z,4.00
2023-04-28T14:48:26.811Z,1.50
2023-04-28T14:50:54.670Z,2.00
2023-04-28T14:53:22.521Z,4.30
2023-04-28T14:55:50.472Z,1.27
2023-04-28T14:58:20.087Z,1.80
2023-04-28T15:00:53.145Z,3.07
2023-04-28T15:03:21.197Z,2.20
2023-04-28T15:05:49.103Z,1.53
2023-04-28T15:08:16.977Z,2.93
2023-04-28T15:10:44.793Z,1.43
2023-04-28T15:13:12.647Z,1.40
2023-04-28T15:15:41.848Z,6.07
2023-04-28T15:18:10.087Z,1.13
2023-04-28T15:20:38.401Z,2.83
2023-04-28T15:23:06.293Z,0.90
2023-04-28T15:25:34.140Z,0.80
2023-04-28T15:28:03.934Z,0.70
2023-04-28T15:30:32.233Z,1.00
2023-04-28T15:33:02.148Z,1.20
2023-04-28T15:35:30.117Z,2.60
2023-04-28T15:37:58.007Z,1.07
2023-04-28T15:40:25.936Z,0.97
2023-04-28T15:42:53.779Z,0.93
2023-04-28T15:45:22.585Z,0.80
2023-04-28T15:47:51.967Z,0.90
2023-04-28T15:50:22.833Z,2.20
2023-04-28T15:52:51.356Z,2.57
2023-04-28T15:55:20.996Z,1.33
2023-04-28T15:57:49.518Z,2.23
2023-04-28T16:00:18.016Z,1.10
2023-04-28T16:02:49.069Z,0.80
2023-04-28T16:05:17.108Z,1.50
2023-04-28T16:07:46.261Z,1.00
2023-04-28T16:10:15.122Z,1.00
2023-04-28T16:12:43.247Z,0.93
2023-04-28T16:15:13.046Z,2.10
2023-04-28T16:17:41.502Z,0.90
2023-04-28T16:20:11.087Z,1.10
2023-04-28T16:22:40.125Z,1.80
2023-04-28T16:25:10.723Z,1.07
2023-04-28T16:27:39.653Z,2.80
2023-04-28T16:30:08.734Z,1.10
2023-04-28T16:32:38.345Z,2.30
2023-04-28T16:35:11.200Z,0.87
2023-04-28T16:37:40.886Z,1.00
2023-04-28T16:40:11.582Z,0.97
2023-04-28T16:42:43.558Z,2.03
2023-04-28T16:45:12.066Z,0.90
2023-04-28T16:47:42.275Z,1.00
2023-04-28T16:50:11.431Z,1.20
2023-04-28T16:52:39.262Z,1.00
2023-04-28T16:55:08.293Z,1.10
2023-04-28T16:57:37.519Z,1.07
2023-04-28T17:00:06.309Z,2.30
2023-04-28T17:02:34.458Z,1.23
2023-04-28T17:05:02.509Z,2.10
2023-04-28T17:07:30.495Z,1.20
2023-04-28T17:09:58.399Z,3.00
2023-04-28T17:12:26.544Z,1.70
2023-04-28T17:14:55.781Z,1.93
2023-04-28T17:17:23.642Z,1.67
2023-04-28T17:19:51.680Z,3.50
2023-04-28T17:22:19.639Z,9.00
2023-04-28T17:24:47.639Z,2.40
2023-04-28T17:27:16.224Z,3.63
2023-04-28T17:29:44.287Z,3.50
2023-04-28T17:32:13.486Z,4.30
2023-04-28T17:34:41.641Z,1.70
2023-04-28T17:37:09.520Z,2.10
2023-04-28T17:39:37.385Z,2.20
2023-04-28T17:42:05.323Z,1.70
2023-04-28T17:44:33.250Z,1.27
2023-04-28T17:47:02.793Z,1.30
2023-04-28T17:49:32.699Z,3.13
2023-04-28T17:52:00.526Z,4.00
2023-04-28T17:54:28.747Z,1.60
2023-04-28T17:56:57.177Z,1.00
2023-04-28T17:59:25.048Z,2.43
2023-04-28T18:01:53.789Z,1.20
2023-04-28T18:04:21.754Z,2.17
2023-04-28T18:06:51.056Z,1.10
2023-04-28T18:09:18.949Z,1.50
2023-04-28T18:11:47.121Z,1.50
2023-04-28T18:14:18.631Z,2.10
2023-04-28T18:16:48.753Z,1.90
2023-04-28T18:19:16.996Z,2.97
2023-04-28T18:21:44.875Z,2.87
2023-04-28T18:24:14.064Z,1.10
2023-04-28T18:26:42.184Z,1.00
2023-04-28T18:29:10.350Z,1.83
2023-04-28T18:31:38.302Z,1.80
2023-04-28T18:34:06.663Z,1.30
2023-04-28T18:36:35.687Z,2.60
2023-04-28T18:39:06.238Z,4.20
2023-04-28T18:41:37.908Z,2.93
2023-04-28T18:44:05.899Z,2.77
2023-04-28T18:46:36.801Z,1.17
2023-04-28T18:49:05.597Z,1.20
2023-04-28T18:51:33.601Z,3.00
2023-04-28T18:54:01.697Z,2.00
2023-04-28T18:56:30.019Z,1.93
2023-04-28T18:58:59.762Z,1.70
2023-04-28T19:01:27.663Z,3.43
2023-04-28T19:03:56.058Z,1.60
2023-04-28T19:06:24.011Z,3.10
2023-04-28T19:08:51.852Z,1.67
2023-04-28T19:11:19.747Z,1.30
2023-04-28T19:13:47.778Z,1.57
2023-04-28T19:16:18.364Z,3.00
2023-04-28T19:18:46.476Z,1.20
2023-04-28T19:21:14.370Z,1.30
2023-04-28T19:23:42.285Z,2.00
2023-04-28T19:26:10.580Z,1.90
2023-04-28T19:28:38.407Z,3.30
2023-04-28T19:31:06.757Z,1.40
2023-04-28T19:33:36.036Z,4.10
2023-04-28T19:36:04.727Z,2.23
2023-04-28T19:38:32.566Z,4.57
2023-04-28T19:41:01.916Z,4.40
2023-04-28T19:43:29.892Z,3.53
2023-04-28T19:45:57.992Z,3.20
2023-04-28T19:48:26.177Z,5.13
2023-04-28T19:50:55.421Z,2.73
2023-04-28T19:53:23.505Z,4.67
2023-04-28T19:55:54.746Z,3.17
2023-04-28T19:58:22.991Z,2.93
2023-04-28T20:00:51.280Z,9.17
2023-04-28T20:03:19.243Z,3.13
2023-04-28T20:05:47.174Z,2.60
2023-04-28T20:08:17.491Z,3.80
2023-04-28T20:10:46.749Z,3.10
2023-04-28T20:13:16.266Z,9.23
2023-04-28T20:15:44.112Z,2.73
2023-04-28T20:18:12.060Z,2.70
2023-04-28T20:20:39.913Z,4.07
2023-04-28T20:23:07.794Z,3.83
2023-04-28T20:25:37.662Z,3.30
2023-04-28T20:28:05.923Z,3.00
2023-04-28T20:30:33.777Z,2.87
2023-04-28T20:33:01.674Z,2.60
2023-04-28T20:35:29.539Z,2.37
2023-04-28T20:37:58.906Z,2.40
2023-04-28T20:40:26.801Z,5.90
2023-04-28T20:42:56.729Z,2.30
2023-04-28T20:45:24.922Z,3.43
2023-04-28T20:47:54.500Z,2.43
2023-04-28T20:50:23.820Z,2.20
2023-04-28T20:52:51.610Z,4.40
2023-04-28T20:55:19.440Z,4.03
2023-04-28T20:57:47.241Z,4.33
2023-04-28T21:00:16.527Z,19.17
2023-04-28T21:02:45.390Z,12.20
2023-04-28T21:05:13.587Z,17.07
2023-04-28T21:07:41.495Z,8.47
2023-04-28T21:10:10.671Z,10.43
2023-04-28T21:12:38.526Z,6.03
2023-04-28T21:15:07.341Z,6.47
2023-04-28T21:17:36.535Z,5.40
2023-04-28T21:20:04.700Z,5.90
2023-04-28T21:22:32.560Z,6.33
2023-04-28T21:25:00.377Z,7.83
2023-04-28T21:27:28.209Z,6.80
2023-04-28T21:29:56.021Z,8.17
2023-04-28T21:32:23.874Z,10.53
2023-04-28T21:34:53.108Z,6.77
2023-04-28T21:37:21.038Z,11.13
2023-04-28T21:39:52.177Z,7.63
2023-04-28T21:42:20.165Z,10.63
2023-04-28T21:44:48.708Z,8.70
2023-04-28T21:47:16.858Z,11.10
2023-04-28T21:49:44.940Z,8.77
2023-04-28T21:52:14.306Z,8.30
2023-04-28T21:54:42.195Z,9.50
2023-04-28T21:57:10.034Z,9.93
2023-04-28T21:59:37.941Z,10.37
2023-04-28T22:02:06.202Z,13.43
2023-04-28T22:04:34.647Z,9.53
2023-04-28T22:07:02.704Z,11.07
2023-04-28T22:09:33.196Z,9.50
2023-04-28T22:12:01.032Z,13.80
2023-04-28T22:14:40.666Z,8.43
2023-04-28T22:17:09.507Z,9.57
2023-04-28T22:19:37.343Z,9.50
2023-04-28T22:22:05.466Z,11.83
2023-04-28T22:24:34.648Z,8.97
2023-04-28T22:27:02.522Z,9.27
2023-04-28T22:29:30.403Z,9.67
2023-04-28T22:31:58.936Z,13.47
2023-04-28T22:34:26.731Z,11.50
2023-04-28T22:36:54.569Z,11.60
2023-04-28T22:39:24.959Z,11.23
2023-04-28T22:41:54.235Z,11.33
2023-04-28T22:44:22.026Z,10.33
2023-04-28T22:46:49.919Z,16.00
2023-04-28T22:49:17.898Z,10.90
2023-04-28T22:51:45.743Z,11.87
2023-04-28T22:54:13.660Z,10.43
2023-04-28T22:56:41.702Z,11.63
2023-04-28T22:59:10.864Z,8.30
2023-04-28T23:01:40.032Z,12.67
2023-04-28T23:04:08.207Z,18.57
2023-04-28T23:06:36.331Z,17.83
2023-04-28T23:09:05.414Z,11.47
2023-04-28T23:11:33.257Z,17.90
2023-04-28T23:14:01.084Z,9.97
2023-04-28T23:16:30.375Z,12.73
2023-04-28T23:18:58.350Z,13.30
2023-04-28T23:21:26.335Z,12.30
2023-04-28T23:23:54.165Z,10.60
2023-04-28T23:26:21.970Z,14.77
2023-04-28T23:28:49.809Z,9.27
2023-04-28T23:31:17.711Z,11.30
2023-04-28T23:33:46.990Z,11.30
2023-04-28T23:36:15.171Z,8.80
2023-04-28T23:38:42.964Z,10.30
2023-04-28T23:41:10.771Z,9.90
2023-04-28T23:43:38.663Z,10.50
2023-04-28T23:46:06.842Z,12.33
2023-04-28T23:48:34.909Z,9.70
2023-04-28T23:51:05.739Z,10.87
2023-04-28T23:53:33.638Z,9.57
2023-04-28T23:56:01.651Z,12.67
2023-04-28T23:58:29.469Z,9.40
